sensor_id;sensor_type;location;lat;lon;timestamp;P1;durP1;ratioP1;P2;durP2;ratioP2
74162;SDS011;62515;52.758;5.076;2022-08-16T00:00:19;29.30;;;21.25;;
74162;SDS011;62515;52.758;5.076;2022-08-16T00:02:48;32.25;;;21.27;;
74162;SDS011;62515;52.758;5.076;2022-08-16T00:05:17;34.33;;;22.52;;
74162;SDS011;62515;52.758;5.076;2022-08-16T00:07:45;32.58;;;21.17;;
74162;SDS011;62515;52.758;5.076;2022-08-16T00:10:13;30.55;;;21.15;;
74162;SDS011;62515;52.758;5.076;2022-08-16T00:12:48;33.30;;;22.17;;
74162;SDS011;62515;52.758;5.076;2022-08-16T00:15:18;33.58;;;23.42;;
74162;SDS011;62515;52.758;5.076;2022-08-16T00:17:47;36.42;;;23.02;;
74162;SDS011;62515;52.758;5.076;2022-08-16T00:20:22;31.98;;;23.27;;
74162;SDS011;62515;52.758;5.076;2022-08-16T00:22:50;30.75;;;21.40;;
74162;SDS011;62515;52.758;5.076;2022-08-16T00:25:18;33.33;;;21.17;;
74162;SDS011;62515;52.758;5.076;2022-08-16T00:28:08;30.17;;;21.13;;
74162;SDS011;62515;52.758;5.076;2022-08-16T00:30:36;31.73;;;21.55;;
74162;SDS011;62515;52.758;5.076;2022-08-16T00:33:05;32.35;;;21.00;;
74162;SDS011;62515;52.758;5.076;2022-08-16T00:35:35;27.92;;;18.83;;
74162;SDS011;62515;52.758;5.076;2022-08-16T00:38:02;29.42;;;19.85;;
74162;SDS011;62515;52.758;5.076;2022-08-16T00:40:52;28.08;;;18.33;;
74162;SDS011;62515;52.758;5.076;2022-08-16T00:43:23;24.48;;;17.55;;
74162;SDS011;62515;52.758;5.076;2022-08-16T00:46:09;23.58;;;16.30;;
74162;SDS011;62515;52.758;5.076;2022-08-16T00:49:00;25.23;;;16.67;;
74162;SDS011;62515;52.758;5.076;2022-08-16T00:51:28;22.77;;;16.75;;
74162;SDS011;62515;52.758;5.076;2022-08-16T00:53:56;25.08;;;16.63;;
74162;SDS011;62515;52.758;5.076;2022-08-16T00:56:25;21.88;;;16.85;;
74162;SDS011;62515;52.758;5.076;2022-08-16T00:59:16;25.02;;;17.10;;
74162;SDS011;62515;52.758;5.076;2022-08-16T01:01:49;23.63;;;16.77;;
74162;SDS011;62515;52.758;5.076;2022-08-16T01:04:18;24.38;;;16.90;;
74162;SDS011;62515;52.758;5.076;2022-08-16T01:06:56;21.88;;;16.38;;
74162;SDS011;62515;52.758;5.076;2022-08-16T01:09:27;26.42;;;18.83;;
74162;SDS011;62515;52.758;5.076;2022-08-16T01:12:00;25.30;;;18.10;;
74162;SDS011;62515;52.758;5.076;2022-08-16T01:14:30;25.08;;;17.88;;
74162;SDS011;62515;52.758;5.076;2022-08-16T01:17:00;26.60;;;18.55;;
74162;SDS011;62515;52.758;5.076;2022-08-16T01:19:34;27.88;;;19.40;;
74162;SDS011;62515;52.758;5.076;2022-08-16T01:22:08;29.83;;;19.73;;
74162;SDS011;62515;52.758;5.076;2022-08-16T01:25:04;28.77;;;19.02;;
74162;SDS011;62515;52.758;5.076;2022-08-16T01:27:35;28.23;;;19.38;;
74162;SDS011;62515;52.758;5.076;2022-08-16T01:30:07;30.67;;;19.10;;
74162;SDS011;62515;52.758;5.076;2022-08-16T01:32:50;29.25;;;20.45;;
74162;SDS011;62515;52.758;5.076;2022-08-16T01:35:30;28.48;;;20.45;;
74162;SDS011;62515;52.758;5.076;2022-08-16T01:40:49;28.52;;;19.33;;
74162;SDS011;62515;52.758;5.076;2022-08-16T01:43:16;29.65;;;20.63;;
74162;SDS011;62515;52.758;5.076;2022-08-16T01:45:44;33.58;;;21.55;;
74162;SDS011;62515;52.758;5.076;2022-08-16T01:48:12;33.35;;;21.20;;
74162;SDS011;62515;52.758;5.076;2022-08-16T01:50:45;37.05;;;24.73;;
74162;SDS011;62515;52.758;5.076;2022-08-16T01:53:34;36.13;;;23.05;;
74162;SDS011;62515;52.758;5.076;2022-08-16T01:56:18;35.92;;;23.45;;
74162;SDS011;62515;52.758;5.076;2022-08-16T01:58:49;38.65;;;24.52;;
74162;SDS011;62515;52.758;5.076;2022-08-16T02:01:17;37.42;;;24.50;;
74162;SDS011;62515;52.758;5.076;2022-08-16T02:03:44;36.88;;;24.50;;
74162;SDS011;62515;52.758;5.076;2022-08-16T02:06:17;40.38;;;24.90;;
74162;SDS011;62515;52.758;5.076;2022-08-16T02:09:03;39.17;;;25.45;;
74162;SDS011;62515;52.758;5.076;2022-08-16T02:11:33;36.42;;;23.08;;
74162;SDS011;62515;52.758;5.076;2022-08-16T02:14:19;34.50;;;22.85;;
74162;SDS011;62515;52.758;5.076;2022-08-16T02:16:53;36.65;;;23.83;;
74162;SDS011;62515;52.758;5.076;2022-08-16T02:19:22;39.63;;;25.92;;
74162;SDS011;62515;52.758;5.076;2022-08-16T02:22:13;38.65;;;23.50;;
74162;SDS011;62515;52.758;5.076;2022-08-16T02:25:01;46.03;;;25.17;;
74162;SDS011;62515;52.758;5.076;2022-08-16T02:27:32;39.95;;;25.92;;
74162;SDS011;62515;52.758;5.076;2022-08-16T02:29:59;42.13;;;25.95;;
74162;SDS011;62515;52.758;5.076;2022-08-16T02:32:31;36.63;;;23.42;;
74162;SDS011;62515;52.758;5.076;2022-08-16T02:35:17;40.30;;;23.83;;
74162;SDS011;62515;52.758;5.076;2022-08-16T02:37:49;37.40;;;25.25;;
74162;SDS011;62515;52.758;5.076;2022-08-16T02:40:21;35.55;;;22.98;;
74162;SDS011;62515;52.758;5.076;2022-08-16T02:42:52;35.60;;;23.50;;
74162;SDS011;62515;52.758;5.076;2022-08-16T02:45:21;33.40;;;21.98;;
74162;SDS011;62515;52.758;5.076;2022-08-16T02:47:54;35.35;;;22.67;;
74162;SDS011;62515;52.758;5.076;2022-08-16T02:50:27;35.30;;;23.73;;
74162;SDS011;62515;52.758;5.076;2022-08-16T02:53:15;32.55;;;22.45;;
74162;SDS011;62515;52.758;5.076;2022-08-16T02:55:44;38.50;;;23.42;;
74162;SDS011;62515;52.758;5.076;2022-08-16T02:58:17;37.40;;;23.65;;
74162;SDS011;62515;52.758;5.076;2022-08-16T03:00:51;37.00;;;24.75;;
74162;SDS011;62515;52.758;5.076;2022-08-16T03:03:22;42.38;;;24.13;;
74162;SDS011;62515;52.758;5.076;2022-08-16T03:05:50;37.75;;;24.63;;
74162;SDS011;62515;52.758;5.076;2022-08-16T03:08:20;39.10;;;24.08;;
74162;SDS011;62515;52.758;5.076;2022-08-16T03:11:09;36.30;;;24.25;;
74162;SDS011;62515;52.758;5.076;2022-08-16T03:13:49;37.22;;;25.42;;
74162;SDS011;62515;52.758;5.076;2022-08-16T03:16:22;40.00;;;25.17;;
74162;SDS011;62515;52.758;5.076;2022-08-16T03:19:08;40.35;;;23.98;;
74162;SDS011;62515;52.758;5.076;2022-08-16T03:21:36;36.70;;;24.65;;
74162;SDS011;62515;52.758;5.076;2022-08-16T03:24:06;39.38;;;25.10;;
74162;SDS011;62515;52.758;5.076;2022-08-16T03:26:56;45.17;;;28.70;;
74162;SDS011;62515;52.758;5.076;2022-08-16T03:29:30;49.67;;;27.65;;
74162;SDS011;62515;52.758;5.076;2022-08-16T03:32:01;42.70;;;26.77;;
74162;SDS011;62515;52.758;5.076;2022-08-16T03:34:30;44.22;;;27.20;;
74162;SDS011;62515;52.758;5.076;2022-08-16T03:36:58;49.55;;;27.00;;
74162;SDS011;62515;52.758;5.076;2022-08-16T03:39:26;48.08;;;28.42;;
74162;SDS011;62515;52.758;5.076;2022-08-16T03:41:56;47.42;;;29.10;;
74162;SDS011;62515;52.758;5.076;2022-08-16T03:44:27;46.70;;;28.63;;
74162;SDS011;62515;52.758;5.076;2022-08-16T03:47:10;49.63;;;30.73;;
74162;SDS011;62515;52.758;5.076;2022-08-16T03:49:38;45.10;;;27.92;;
74162;SDS011;62515;52.758;5.076;2022-08-16T03:52:05;47.17;;;28.35;;
74162;SDS011;62515;52.758;5.076;2022-08-16T03:54:34;44.92;;;28.52;;
74162;SDS011;62515;52.758;5.076;2022-08-16T03:57:03;43.70;;;26.75;;
74162;SDS011;62515;52.758;5.076;2022-08-16T03:59:33;47.25;;;27.95;;
74162;SDS011;62515;52.758;5.076;2022-08-16T04:02:08;43.15;;;27.92;;
74162;SDS011;62515;52.758;5.076;2022-08-16T04:07:15;48.08;;;29.65;;
74162;SDS011;62515;52.758;5.076;2022-08-16T04:09:44;40.83;;;25.90;;
74162;SDS011;62515;52.758;5.076;2022-08-16T04:12:12;48.67;;;29.50;;
74162;SDS011;62515;52.758;5.076;2022-08-16T04:15:01;43.92;;;26.90;;
74162;SDS011;62515;52.758;5.076;2022-08-16T04:17:36;45.83;;;27.27;;
74162;SDS011;62515;52.758;5.076;2022-08-16T04:20:04;40.65;;;25.92;;
74162;SDS011;62515;52.758;5.076;2022-08-16T04:25:25;42.28;;;26.15;;
74162;SDS011;62515;52.758;5.076;2022-08-16T04:27:52;43.00;;;26.33;;
74162;SDS011;62515;52.758;5.076;2022-08-16T04:30:23;49.70;;;28.38;;
74162;SDS011;62515;52.758;5.076;2022-08-16T04:32:57;45.70;;;26.20;;
74162;SDS011;62515;52.758;5.076;2022-08-16T04:35:26;49.95;;;27.95;;
74162;SDS011;62515;52.758;5.076;2022-08-16T04:37:59;44.40;;;27.73;;
74162;SDS011;62515;52.758;5.076;2022-08-16T04:40:47;46.72;;;27.33;;
74162;SDS011;62515;52.758;5.076;2022-08-16T04:43:16;47.05;;;26.70;;
74162;SDS011;62515;52.758;5.076;2022-08-16T04:45:45;50.53;;;29.00;;
74162;SDS011;62515;52.758;5.076;2022-08-16T04:48:26;52.20;;;28.85;;
74162;SDS011;62515;52.758;5.076;2022-08-16T04:53:42;45.00;;;26.38;;
74162;SDS011;62515;52.758;5.076;2022-08-16T04:56:10;47.88;;;29.10;;
74162;SDS011;62515;52.758;5.076;2022-08-16T04:58:38;49.65;;;30.58;;
74162;SDS011;62515;52.758;5.076;2022-08-16T05:01:14;49.70;;;29.45;;
74162;SDS011;62515;52.758;5.076;2022-08-16T05:03:44;52.45;;;30.48;;
74162;SDS011;62515;52.758;5.076;2022-08-16T05:06:37;46.47;;;28.38;;
74162;SDS011;62515;52.758;5.076;2022-08-16T05:09:16;48.92;;;28.73;;
74162;SDS011;62515;52.758;5.076;2022-08-16T05:11:50;47.50;;;28.52;;
74162;SDS011;62515;52.758;5.076;2022-08-16T05:14:17;44.40;;;28.55;;
74162;SDS011;62515;52.758;5.076;2022-08-16T05:17:05;45.03;;;28.05;;
74162;SDS011;62515;52.758;5.076;2022-08-16T05:19:32;45.15;;;28.60;;
74162;SDS011;62515;52.758;5.076;2022-08-16T05:22:11;41.20;;;27.23;;
74162;SDS011;62515;52.758;5.076;2022-08-16T05:24:49;49.63;;;28.15;;
74162;SDS011;62515;52.758;5.076;2022-08-16T05:27:21;49.38;;;28.48;;
74162;SDS011;62515;52.758;5.076;2022-08-16T05:29:48;46.92;;;28.48;;
74162;SDS011;62515;52.758;5.076;2022-08-16T05:32:29;49.60;;;27.83;;
74162;SDS011;62515;52.758;5.076;2022-08-16T05:35:03;45.65;;;28.20;;
74162;SDS011;62515;52.758;5.076;2022-08-16T05:37:41;45.03;;;28.70;;
74162;SDS011;62515;52.758;5.076;2022-08-16T05:40:11;50.70;;;28.73;;
74162;SDS011;62515;52.758;5.076;2022-08-16T05:42:41;48.33;;;28.65;;
74162;SDS011;62515;52.758;5.076;2022-08-16T05:45:15;46.65;;;27.40;;
74162;SDS011;62515;52.758;5.076;2022-08-16T05:47:53;48.47;;;28.52;;
74162;SDS011;62515;52.758;5.076;2022-08-16T05:50:49;52.30;;;28.77;;
74162;SDS011;62515;52.758;5.076;2022-08-16T05:53:19;49.70;;;28.38;;
74162;SDS011;62515;52.758;5.076;2022-08-16T05:56:16;48.10;;;29.40;;
74162;SDS011;62515;52.758;5.076;2022-08-16T05:58:46;50.33;;;29.90;;
74162;SDS011;62515;52.758;5.076;2022-08-16T06:01:14;52.45;;;29.33;;
74162;SDS011;62515;52.758;5.076;2022-08-16T06:03:46;48.85;;;31.15;;
74162;SDS011;62515;52.758;5.076;2022-08-16T06:06:23;45.75;;;27.58;;
74162;SDS011;62515;52.758;5.076;2022-08-16T06:08:55;49.05;;;28.60;;
74162;SDS011;62515;52.758;5.076;2022-08-16T06:11:23;47.90;;;29.73;;
74162;SDS011;62515;52.758;5.076;2022-08-16T06:13:54;46.95;;;28.35;;
74162;SDS011;62515;52.758;5.076;2022-08-16T06:16:37;49.90;;;29.27;;
74162;SDS011;62515;52.758;5.076;2022-08-16T06:19:05;48.50;;;28.33;;
74162;SDS011;62515;52.758;5.076;2022-08-16T06:21:38;48.75;;;28.52;;
74162;SDS011;62515;52.758;5.076;2022-08-16T06:24:06;45.72;;;27.98;;
74162;SDS011;62515;52.758;5.076;2022-08-16T06:29:26;48.22;;;28.13;;
74162;SDS011;62515;52.758;5.076;2022-08-16T06:31:53;45.90;;;30.02;;
74162;SDS011;62515;52.758;5.076;2022-08-16T06:34:25;48.33;;;28.95;;
74162;SDS011;62515;52.758;5.076;2022-08-16T06:37:13;49.33;;;29.15;;
74162;SDS011;62515;52.758;5.076;2022-08-16T06:39:42;44.95;;;27.20;;
74162;SDS011;62515;52.758;5.076;2022-08-16T06:42:30;44.28;;;28.15;;
74162;SDS011;62515;52.758;5.076;2022-08-16T06:45:36;45.85;;;28.13;;
74162;SDS011;62515;52.758;5.076;2022-08-16T06:48:11;45.83;;;26.08;;
74162;SDS011;62515;52.758;5.076;2022-08-16T06:50:45;44.35;;;27.83;;
74162;SDS011;62515;52.758;5.076;2022-08-16T06:53:17;47.20;;;29.95;;
74162;SDS011;62515;52.758;5.076;2022-08-16T06:55:59;49.58;;;27.75;;
74162;SDS011;62515;52.758;5.076;2022-08-16T06:58:43;47.58;;;28.23;;
74162;SDS011;62515;52.758;5.076;2022-08-16T07:01:15;56.92;;;28.80;;
74162;SDS011;62515;52.758;5.076;2022-08-16T07:03:50;46.80;;;29.88;;
74162;SDS011;62515;52.758;5.076;2022-08-16T07:06:23;45.17;;;27.85;;
74162;SDS011;62515;52.758;5.076;2022-08-16T07:08:55;45.70;;;29.15;;
74162;SDS011;62515;52.758;5.076;2022-08-16T07:11:24;42.72;;;27.40;;
74162;SDS011;62515;52.758;5.076;2022-08-16T07:14:12;48.80;;;28.98;;
74162;SDS011;62515;52.758;5.076;2022-08-16T07:16:52;42.15;;;27.92;;
74162;SDS011;62515;52.758;5.076;2022-08-16T07:19:24;45.63;;;26.75;;
74162;SDS011;62515;52.758;5.076;2022-08-16T07:22:14;45.08;;;25.70;;
74162;SDS011;62515;52.758;5.076;2022-08-16T07:25:01;47.80;;;26.60;;
74162;SDS011;62515;52.758;5.076;2022-08-16T07:27:28;44.08;;;27.65;;
74162;SDS011;62515;52.758;5.076;2022-08-16T07:30:03;43.80;;;26.10;;
74162;SDS011;62515;52.758;5.076;2022-08-16T07:32:53;41.17;;;27.15;;
74162;SDS011;62515;52.758;5.076;2022-08-16T07:35:21;41.25;;;26.45;;
74162;SDS011;62515;52.758;5.076;2022-08-16T07:37:50;41.67;;;28.92;;
74162;SDS011;62515;52.758;5.076;2022-08-16T07:40:28;45.80;;;26.13;;
74162;SDS011;62515;52.758;5.076;2022-08-16T07:43:15;43.90;;;27.13;;
74162;SDS011;62515;52.758;5.076;2022-08-16T07:45:42;42.20;;;26.60;;
74162;SDS011;62515;52.758;5.076;2022-08-16T07:48:18;36.28;;;25.90;;
74162;SDS011;62515;52.758;5.076;2022-08-16T07:50:50;35.42;;;23.02;;
74162;SDS011;62515;52.758;5.076;2022-08-16T07:53:26;33.50;;;22.42;;
74162;SDS011;62515;52.758;5.076;2022-08-16T07:55:55;37.47;;;22.35;;
74162;SDS011;62515;52.758;5.076;2022-08-16T07:58:27;30.67;;;21.60;;
74162;SDS011;62515;52.758;5.076;2022-08-16T08:01:06;24.73;;;16.60;;
74162;SDS011;62515;52.758;5.076;2022-08-16T08:03:41;25.00;;;15.73;;
74162;SDS011;62515;52.758;5.076;2022-08-16T08:06:20;19.52;;;15.07;;
74162;SDS011;62515;52.758;5.076;2022-08-16T08:08:53;24.60;;;14.40;;
74162;SDS011;62515;52.758;5.076;2022-08-16T08:11:25;24.10;;;15.75;;
74162;SDS011;62515;52.758;5.076;2022-08-16T08:13:57;25.40;;;15.57;;
74162;SDS011;62515;52.758;5.076;2022-08-16T08:16:33;24.30;;;15.05;;
74162;SDS011;62515;52.758;5.076;2022-08-16T08:21:32;25.00;;;15.60;;
74162;SDS011;62515;52.758;5.076;2022-08-16T08:24:25;20.50;;;14.20;;
74162;SDS011;62515;52.758;5.076;2022-08-16T08:26:59;17.83;;;13.48;;
74162;SDS011;62515;52.758;5.076;2022-08-16T08:29:29;20.33;;;12.95;;
74162;SDS011;62515;52.758;5.076;2022-08-16T08:32:05;20.42;;;14.82;;
74162;SDS011;62515;52.758;5.076;2022-08-16T08:34:57;20.90;;;12.88;;
74162;SDS011;62515;52.758;5.076;2022-08-16T08:37:30;22.17;;;13.93;;
74162;SDS011;62515;52.758;5.076;2022-08-16T08:40:20;22.92;;;14.05;;
74162;SDS011;62515;52.758;5.076;2022-08-16T08:42:52;18.83;;;13.93;;
74162;SDS011;62515;52.758;5.076;2022-08-16T08:45:37;20.88;;;12.80;;
74162;SDS011;62515;52.758;5.076;2022-08-16T08:48:14;19.35;;;11.30;;
74162;SDS011;62515;52.758;5.076;2022-08-16T08:51:03;21.00;;;13.95;;
74162;SDS011;62515;52.758;5.076;2022-08-16T08:53:40;26.33;;;15.23;;
74162;SDS011;62515;52.758;5.076;2022-08-16T08:56:11;21.10;;;13.13;;
74162;SDS011;62515;52.758;5.076;2022-08-16T08:58:51;23.35;;;13.07;;
74162;SDS011;62515;52.758;5.076;2022-08-16T09:01:31;19.08;;;13.27;;
74162;SDS011;62515;52.758;5.076;2022-08-16T09:04:09;18.45;;;12.75;;
74162;SDS011;62515;52.758;5.076;2022-08-16T09:06:44;16.73;;;12.25;;
74162;SDS011;62515;52.758;5.076;2022-08-16T09:09:13;22.45;;;13.55;;
74162;SDS011;62515;52.758;5.076;2022-08-16T09:11:47;16.60;;;9.27;;
74162;SDS011;62515;52.758;5.076;2022-08-16T09:14:37;16.67;;;12.27;;
74162;SDS011;62515;52.758;5.076;2022-08-16T09:17:16;15.30;;;9.32;;
74162;SDS011;62515;52.758;5.076;2022-08-16T09:20:03;17.13;;;11.10;;
74162;SDS011;62515;52.758;5.076;2022-08-16T09:22:32;16.30;;;10.30;;
74162;SDS011;62515;52.758;5.076;2022-08-16T09:24:59;12.93;;;9.13;;
74162;SDS011;62515;52.758;5.076;2022-08-16T09:27:38;12.82;;;8.10;;
74162;SDS011;62515;52.758;5.076;2022-08-16T09:30:23;12.18;;;6.97;;
74162;SDS011;62515;52.758;5.076;2022-08-16T09:33:10;15.50;;;7.97;;
74162;SDS011;62515;52.758;5.076;2022-08-16T09:35:39;13.73;;;6.63;;
74162;SDS011;62515;52.758;5.076;2022-08-16T09:38:08;10.05;;;6.93;;
74162;SDS011;62515;52.758;5.076;2022-08-16T09:40:58;11.10;;;7.15;;
74162;SDS011;62515;52.758;5.076;2022-08-16T09:43:28;12.57;;;7.05;;
74162;SDS011;62515;52.758;5.076;2022-08-16T09:46:15;11.32;;;5.55;;
74162;SDS011;62515;52.758;5.076;2022-08-16T09:49:02;8.25;;;5.65;;
74162;SDS011;62515;52.758;5.076;2022-08-16T09:51:29;10.38;;;5.22;;
74162;SDS011;62515;52.758;5.076;2022-08-16T09:54:01;9.85;;;5.47;;
74162;SDS011;62515;52.758;5.076;2022-08-16T09:56:32;10.07;;;4.85;;
74162;SDS011;62515;52.758;5.076;2022-08-16T09:59:03;12.57;;;4.90;;
74162;SDS011;62515;52.758;5.076;2022-08-16T10:01:33;7.78;;;4.57;;
74162;SDS011;62515;52.758;5.076;2022-08-16T10:04:02;8.73;;;4.95;;
74162;SDS011;62515;52.758;5.076;2022-08-16T10:06:49;8.82;;;4.80;;
74162;SDS011;62515;52.758;5.076;2022-08-16T10:09:18;7.68;;;4.22;;
74162;SDS011;62515;52.758;5.076;2022-08-16T10:11:45;15.75;;;7.38;;
74162;SDS011;62515;52.758;5.076;2022-08-16T10:14:44;10.77;;;6.65;;
74162;SDS011;62515;52.758;5.076;2022-08-16T10:17:11;10.13;;;6.43;;
74162;SDS011;62515;52.758;5.076;2022-08-16T10:19:40;7.22;;;5.43;;
74162;SDS011;62515;52.758;5.076;2022-08-16T10:24:38;8.63;;;7.25;;
74162;SDS011;62515;52.758;5.076;2022-08-16T10:27:21;9.63;;;6.95;;
74162;SDS011;62515;52.758;5.076;2022-08-16T10:30:11;9.85;;;5.93;;
74162;SDS011;62515;52.758;5.076;2022-08-16T10:32:53;8.32;;;5.65;;
74162;SDS011;62515;52.758;5.076;2022-08-16T10:35:20;9.55;;;5.70;;
74162;SDS011;62515;52.758;5.076;2022-08-16T10:37:48;12.02;;;5.65;;
74162;SDS011;62515;52.758;5.076;2022-08-16T10:40:18;9.35;;;5.03;;
74162;SDS011;62515;52.758;5.076;2022-08-16T10:42:55;5.82;;;5.00;;
74162;SDS011;62515;52.758;5.076;2022-08-16T10:45:28;7.32;;;4.60;;
74162;SDS011;62515;52.758;5.076;2022-08-16T10:48:03;8.98;;;5.13;;
74162;SDS011;62515;52.758;5.076;2022-08-16T10:50:51;7.47;;;5.03;;
74162;SDS011;62515;52.758;5.076;2022-08-16T10:53:18;8.07;;;5.03;;
74162;SDS011;62515;52.758;5.076;2022-08-16T10:55:47;6.80;;;4.68;;
74162;SDS011;62515;52.758;5.076;2022-08-16T10:58:23;8.15;;;5.38;;
74162;SDS011;62515;52.758;5.076;2022-08-16T11:01:02;13.02;;;5.35;;
74162;SDS011;62515;52.758;5.076;2022-08-16T11:03:51;7.53;;;5.10;;
74162;SDS011;62515;52.758;5.076;2022-08-16T11:06:22;14.02;;;5.28;;
74162;SDS011;62515;52.758;5.076;2022-08-16T11:08:53;8.85;;;4.88;;
74162;SDS011;62515;52.758;5.076;2022-08-16T11:11:40;9.73;;;6.03;;
74162;SDS011;62515;52.758;5.076;2022-08-16T11:14:27;11.25;;;6.43;;
74162;SDS011;62515;52.758;5.076;2022-08-16T11:16:56;11.43;;;5.65;;
74162;SDS011;62515;52.758;5.076;2022-08-16T11:19:28;8.07;;;5.05;;
74162;SDS011;62515;52.758;5.076;2022-08-16T11:21:55;12.77;;;6.78;;
74162;SDS011;62515;52.758;5.076;2022-08-16T11:24:43;11.27;;;6.57;;
74162;SDS011;62515;52.758;5.076;2022-08-16T11:27:29;11.52;;;8.00;;
74162;SDS011;62515;52.758;5.076;2022-08-16T11:30:01;8.18;;;5.72;;
74162;SDS011;62515;52.758;5.076;2022-08-16T11:32:35;8.10;;;4.85;;
74162;SDS011;62515;52.758;5.076;2022-08-16T11:35:04;9.68;;;5.15;;
74162;SDS011;62515;52.758;5.076;2022-08-16T11:37:40;8.05;;;4.90;;
74162;SDS011;62515;52.758;5.076;2022-08-16T11:40:30;9.93;;;6.60;;
74162;SDS011;62515;52.758;5.076;2022-08-16T11:43:01;12.13;;;5.80;;
74162;SDS011;62515;52.758;5.076;2022-08-16T11:48:01;11.77;;;4.70;;
74162;SDS011;62515;52.758;5.076;2022-08-16T11:50:29;10.13;;;4.85;;
74162;SDS011;62515;52.758;5.076;2022-08-16T11:52:59;11.85;;;4.97;;
74162;SDS011;62515;52.758;5.076;2022-08-16T11:55:28;9.82;;;5.07;;
74162;SDS011;62515;52.758;5.076;2022-08-16T11:57:56;10.48;;;4.88;;
74162;SDS011;62515;52.758;5.076;2022-08-16T12:00:23;8.13;;;5.70;;
74162;SDS011;62515;52.758;5.076;2022-08-16T12:03:11;8.27;;;5.57;;
74162;SDS011;62515;52.758;5.076;2022-08-16T12:05:40;9.02;;;5.50;;
74162;SDS011;62515;52.758;5.076;2022-08-16T12:08:09;9.48;;;6.03;;
74162;SDS011;62515;52.758;5.076;2022-08-16T12:10:38;10.15;;;5.65;;
74162;SDS011;62515;52.758;5.076;2022-08-16T12:13:08;12.30;;;6.78;;
74162;SDS011;62515;52.758;5.076;2022-08-16T12:15:36;10.55;;;5.70;;
74162;SDS011;62515;52.758;5.076;2022-08-16T12:18:03;11.48;;;5.57;;
74162;SDS011;62515;52.758;5.076;2022-08-16T12:20:34;10.98;;;7.13;;
74162;SDS011;62515;52.758;5.076;2022-08-16T12:23:03;8.68;;;5.65;;
74162;SDS011;62515;52.758;5.076;2022-08-16T12:25:31;10.25;;;6.47;;
74162;SDS011;62515;52.758;5.076;2022-08-16T12:28:00;13.35;;;7.03;;
74162;SDS011;62515;52.758;5.076;2022-08-16T12:30:29;13.65;;;7.05;;
74162;SDS011;62515;52.758;5.076;2022-08-16T12:33:05;7.57;;;4.97;;
74162;SDS011;62515;52.758;5.076;2022-08-16T12:35:35;7.97;;;4.75;;
74162;SDS011;62515;52.758;5.076;2022-08-16T12:38:04;9.18;;;5.00;;
74162;SDS011;62515;52.758;5.076;2022-08-16T12:40:52;8.82;;;5.53;;
74162;SDS011;62515;52.758;5.076;2022-08-16T12:43:23;8.43;;;4.60;;
74162;SDS011;62515;52.758;5.076;2022-08-16T12:45:52;7.13;;;4.45;;
74162;SDS011;62515;52.758;5.076;2022-08-16T12:48:22;9.73;;;4.10;;
74162;SDS011;62515;52.758;5.076;2022-08-16T12:51:12;8.15;;;5.38;;
74162;SDS011;62515;52.758;5.076;2022-08-16T12:53:46;9.45;;;4.05;;
74162;SDS011;62515;52.758;5.076;2022-08-16T12:56:15;7.63;;;4.43;;
74162;SDS011;62515;52.758;5.076;2022-08-16T12:58:44;7.13;;;4.13;;
74162;SDS011;62515;52.758;5.076;2022-08-16T13:01:18;14.00;;;5.20;;
74162;SDS011;62515;52.758;5.076;2022-08-16T13:03:47;8.82;;;6.53;;
74162;SDS011;62515;52.758;5.076;2022-08-16T13:06:22;10.80;;;7.82;;
74162;SDS011;62515;52.758;5.076;2022-08-16T13:08:58;13.05;;;7.15;;
74162;SDS011;62515;52.758;5.076;2022-08-16T13:11:33;7.68;;;4.82;;
74162;SDS011;62515;52.758;5.076;2022-08-16T13:14:06;8.50;;;4.68;;
74162;SDS011;62515;52.758;5.076;2022-08-16T13:16:44;8.23;;;5.07;;
74162;SDS011;62515;52.758;5.076;2022-08-16T13:19:11;9.68;;;6.40;;
74162;SDS011;62515;52.758;5.076;2022-08-16T13:21:39;8.63;;;5.35;;
74162;SDS011;62515;52.758;5.076;2022-08-16T13:24:06;8.88;;;5.68;;
74162;SDS011;62515;52.758;5.076;2022-08-16T13:26:33;9.77;;;6.18;;
74162;SDS011;62515;52.758;5.076;2022-08-16T13:29:00;10.25;;;8.10;;
74162;SDS011;62515;52.758;5.076;2022-08-16T13:31:27;12.75;;;9.15;;
74162;SDS011;62515;52.758;5.076;2022-08-16T13:33:53;13.23;;;10.30;;
74162;SDS011;62515;52.758;5.076;2022-08-16T13:36:24;12.43;;;10.40;;
74162;SDS011;62515;52.758;5.076;2022-08-16T13:39:12;11.25;;;10.02;;
74162;SDS011;62515;52.758;5.076;2022-08-16T13:41:39;12.88;;;10.15;;
74162;SDS011;62515;52.758;5.076;2022-08-16T13:44:06;13.52;;;10.05;;
74162;SDS011;62515;52.758;5.076;2022-08-16T13:46:35;12.73;;;9.40;;
74162;SDS011;62515;52.758;5.076;2022-08-16T13:49:04;14.73;;;9.60;;
74162;SDS011;62515;52.758;5.076;2022-08-16T13:51:31;14.75;;;10.65;;
74162;SDS011;62515;52.758;5.076;2022-08-16T13:53:58;16.83;;;11.73;;
74162;SDS011;62515;52.758;5.076;2022-08-16T13:56:32;12.23;;;10.25;;
74162;SDS011;62515;52.758;5.076;2022-08-16T13:59:04;12.07;;;10.60;;
74162;SDS011;62515;52.758;5.076;2022-08-16T14:01:46;14.70;;;9.80;;
74162;SDS011;62515;52.758;5.076;2022-08-16T14:04:22;13.57;;;8.82;;
74162;SDS011;62515;52.758;5.076;2022-08-16T14:06:52;13.13;;;11.07;;
74162;SDS011;62515;52.758;5.076;2022-08-16T14:09:20;13.00;;;9.23;;
74162;SDS011;62515;52.758;5.076;2022-08-16T14:11:48;14.45;;;10.43;;
74162;SDS011;62515;52.758;5.076;2022-08-16T14:14:19;12.07;;;9.18;;
74162;SDS011;62515;52.758;5.076;2022-08-16T14:16:55;12.52;;;10.02;;
74162;SDS011;62515;52.758;5.076;2022-08-16T14:19:22;12.55;;;10.30;;
74162;SDS011;62515;52.758;5.076;2022-08-16T14:21:53;13.38;;;10.70;;
74162;SDS011;62515;52.758;5.076;2022-08-16T14:24:41;14.18;;;10.40;;
74162;SDS011;62515;52.758;5.076;2022-08-16T14:27:14;16.70;;;10.32;;
74162;SDS011;62515;52.758;5.076;2022-08-16T14:29:42;14.02;;;9.77;;
74162;SDS011;62515;52.758;5.076;2022-08-16T14:32:09;11.90;;;8.88;;
74162;SDS011;62515;52.758;5.076;2022-08-16T14:34:57;14.60;;;12.30;;
74162;SDS011;62515;52.758;5.076;2022-08-16T14:37:25;14.32;;;11.38;;
74162;SDS011;62515;52.758;5.076;2022-08-16T14:39:53;13.43;;;9.48;;
74162;SDS011;62515;52.758;5.076;2022-08-16T14:42:24;13.75;;;11.23;;
74162;SDS011;62515;52.758;5.076;2022-08-16T14:44:52;16.27;;;11.82;;
74162;SDS011;62515;52.758;5.076;2022-08-16T14:47:19;19.80;;;10.60;;
74162;SDS011;62515;52.758;5.076;2022-08-16T14:49:48;12.48;;;11.18;;
74162;SDS011;62515;52.758;5.076;2022-08-16T14:52:19;10.77;;;9.13;;
74162;SDS011;62515;52.758;5.076;2022-08-16T14:55:07;21.55;;;11.52;;
74162;SDS011;62515;52.758;5.076;2022-08-16T14:57:38;13.75;;;11.75;;
74162;SDS011;62515;52.758;5.076;2022-08-16T15:00:07;9.90;;;8.57;;
74162;SDS011;62515;52.758;5.076;2022-08-16T15:02:37;12.00;;;10.27;;
74162;SDS011;62515;52.758;5.076;2022-08-16T15:05:11;12.63;;;7.97;;
74162;SDS011;62515;52.758;5.076;2022-08-16T15:07:39;14.57;;;9.35;;
74162;SDS011;62515;52.758;5.076;2022-08-16T15:10:07;15.32;;;7.68;;
74162;SDS011;62515;52.758;5.076;2022-08-16T15:12:51;11.00;;;8.02;;
74162;SDS011;62515;52.758;5.076;2022-08-16T15:15:24;11.50;;;9.27;;
74162;SDS011;62515;52.758;5.076;2022-08-16T15:17:52;11.43;;;9.23;;
74162;SDS011;62515;52.758;5.076;2022-08-16T15:20:23;8.90;;;6.90;;
74162;SDS011;62515;52.758;5.076;2022-08-16T15:22:52;8.50;;;6.95;;
74162;SDS011;62515;52.758;5.076;2022-08-16T15:25:21;10.45;;;7.13;;
74162;SDS011;62515;52.758;5.076;2022-08-16T15:27:56;11.18;;;8.10;;
74162;SDS011;62515;52.758;5.076;2022-08-16T15:30:24;16.80;;;8.68;;